KTOP/TOP METAR and TAF weather

Enter ICAO airport designator
Station Type Date Time Source
KTOP METAR 2021/05/11 22:53 UTC NOAA

KTOP 112253Z 08004KT 10SM OVC070 14/06 A3025 RMK AO2 SLP242 T01440056


Station Type Date Time Source
KTOP Decoded METAR 2021/05/11 22:53 UTC NOAA

TOPEKA BILLARD MUNICIPAL AIRPORT, KS, United States (KTOP) 39-04N 95-38W 268M
May 11, 2021 - 06:53 PM EDT / 2021.05.11 2253 UTC
Wind: from the E (080 degrees) at 5 MPH (4 KT):0
Visibility: 10 mile(s):0
Sky conditions: overcast
Temperature: 57.9 F (14.4 C)
Dew Point: 42.1 F (5.6 C)
Relative Humidity: 55%
Pressure (altimeter): 30.25 in. Hg (1024 hPa)
ob: KTOP 112253Z 08004KT 10SM OVC070 14/06 A3025 RMK AO2 SLP242 T01440056
cycle: 23

Station Type Date Time Source
KTOP TAF 2021/05/11 21:12 UTC NOAA

TAF
AMD KTOP 112111Z 1121/1218 07009KT P6SM VCSH FEW050 BKN060
FM120100 05005KT P6SM SCT060

Example: see airport list